Time;durP1;ratioP1;P1;durP2;ratioP2;P2;SDS_P1;SDS_P2;PMS_P1;PMS_P2;Temp;Humidity;BMP_temperature;BMP_pressure;BME280_temperature;BME280_humidity;BME280_pressure;Samples;Min_cycle;Max_cycle;Signal;HPM_P1;HPM_P2
2022/08/16 00:02:13;;;;;;;4.88;4.45;;;23.90;88.60;;;;;;5046613;28;20021;-33
2022/08/16 00:04:38;;;;;;;5.47;4.97;;;23.90;88.70;;;;;;5045270;28;20052;-34
2022/08/16 00:07:04;;;;;;;5.28;4.80;;;23.80;88.80;;;;;;5046017;28;20024;-34
2022/08/16 00:09:30;;;;;;;5.97;4.75;;;23.80;88.90;;;;;;5046391;28;20025;-34
2022/08/16 00:11:56;;;;;;;6.40;4.47;;;23.80;89.00;;;;;;5046313;28;20484;-33
2022/08/16 00:14:25;;;;;;;4.85;4.38;;;23.80;89.20;;;;;;5045447;28;20115;-33
2022/08/16 00:16:51;;;;;;;5.97;4.47;;;23.70;89.20;;;;;;5045876;28;20025;-35
2022/08/16 00:19:22;;;;;;;7.22;4.72;;;23.70;89.30;;;;;;5046644;28;20009;-34
2022/08/16 00:21:49;;;;;;;7.47;4.93;;;23.60;89.40;;;;;;5045811;28;20040;-34
2022/08/16 00:24:15;;;;;;;5.13;4.63;;;23.60;89.50;;;;;;5046821;28;20017;-34
2022/08/16 00:26:42;;;;;;;5.63;5.00;;;23.60;89.70;;;;;;5045883;28;20017;-34
2022/08/16 00:29:08;;;;;;;5.63;4.95;;;23.60;89.80;;;;;;5045278;28;20036;-34
2022/08/16 00:31:34;;;;;;;5.55;5.05;;;23.50;89.90;;;;;;5046074;28;20041;-34
2022/08/16 00:34:00;;;;;;;5.75;5.25;;;23.50;89.90;;;;;;5045842;28;20460;-33
2022/08/16 00:36:26;;;;;;;5.85;5.25;;;23.50;90.00;;;;;;5045413;28;20024;-33
2022/08/16 00:38:51;;;;;;;5.00;4.60;;;23.50;90.10;;;;;;5046021;28;20013;-33
2022/08/16 00:41:17;;;;;;;6.05;5.00;;;23.50;90.10;;;;;;5045462;28;20727;-33
2022/08/16 00:43:43;;;;;;;6.38;5.28;;;23.50;90.10;;;;;;5045242;28;20251;-33
2022/08/16 00:46:20;;;;;;;5.20;4.80;;;23.50;90.10;;;;;;5046194;28;20013;-33
2022/08/16 00:48:46;;;;;;;5.80;5.30;;;23.40;90.20;;;;;;5046074;28;20021;-34
2022/08/16 00:51:14;;;;;;;5.60;5.10;;;23.40;90.20;;;;;;5045338;28;20032;-35
2022/08/16 00:53:40;;;;;;;5.82;5.22;;;23.30;90.20;;;;;;5046085;28;20021;-34
2022/08/16 00:56:10;;;;;;;6.90;5.47;;;23.30;90.30;;;;;;5044768;28;20533;-34
2022/08/16 00:58:39;;;;;;;6.47;5.88;;;23.30;90.40;;;;;;5045362;28;20059;-34
2022/08/16 01:01:06;;;;;;;6.18;5.20;;;23.30;90.40;;;;;;5045488;28;20025;-34
2022/08/16 01:03:34;;;;;;;6.82;5.00;;;23.20;90.80;;;;;;5044314;28;20091;-34
2022/08/16 01:06:01;;;;;;;6.25;5.20;;;23.20;90.60;;;;;;5044722;28;20108;-33
2022/08/16 01:08:26;;;;;;;7.75;5.68;;;23.10;90.60;;;;;;5045238;28;20068;-33
2022/08/16 01:10:54;;;;;;;5.97;5.25;;;23.10;90.70;;;;;;5043883;28;20485;-34
2022/08/16 01:13:23;;;;;;;5.93;5.32;;;23.10;90.80;;;;;;5045165;28;20021;-33
2022/08/16 01:15:55;;;;;;;5.85;5.35;;;23.00;90.80;;;;;;5044816;28;20024;-33
2022/08/16 01:18:24;;;;;;;5.65;5.15;;;23.00;90.90;;;;;;5044558;28;20431;-34
2022/08/16 01:20:57;;;;;;;6.85;5.70;;;23.00;90.90;;;;;;5044699;28;20029;-34
2022/08/16 01:23:28;;;;;;;;;;;23.00;91.00;;;;;;5046099;28;20032;-35
2022/08/16 01:25:54;;;;;;;6.03;5.43;;;22.90;91.00;;;;;;5043976;28;19982;-34
2022/08/16 01:28:20;;;;;;;6.65;5.22;;;22.90;91.00;;;;;;5045161;28;20087;-34
2022/08/16 01:30:51;;;;;;;5.93;5.40;;;22.90;91.00;;;;;;5043853;28;20354;-34
2022/08/16 01:33:18;;;;;;;6.78;5.30;;;22.80;91.10;;;;;;5044160;28;20035;-33
2022/08/16 01:35:55;;;;;;;5.70;5.20;;;22.80;91.10;;;;;;5044487;28;20037;-34
2022/08/16 01:38:26;;;;;;;7.50;5.22;;;22.80;91.20;;;;;;5044252;28;20020;-33
2022/08/16 01:40:58;;;;;;;6.07;5.13;;;22.70;91.20;;;;;;5044583;28;20029;-33
2022/08/16 01:43:24;;;;;;;;;;;22.70;91.30;;;;;;5044636;28;20067;-33
2022/08/16 01:45:55;;;;;;;5.57;5.07;;;22.70;91.40;;;;;;5043447;28;19912;-33
2022/08/16 01:48:24;;;;;;;8.45;5.22;;;22.70;91.40;;;;;;5045051;28;20060;-34
2022/08/16 01:50:51;;;;;;;5.72;5.20;;;22.60;91.50;;;;;;5044195;28;20508;-34
2022/08/16 01:53:16;;;;;;;5.88;5.18;;;22.60;91.50;;;;;;5046977;28;20040;-34
2022/08/16 01:55:44;;;;;;;5.80;5.15;;;22.60;91.60;;;;;;5049331;28;20507;-34
2022/08/16 01:58:11;;;;;;;7.40;5.50;;;22.50;91.60;;;;;;5048821;28;20581;-34
2022/08/16 02:00:36;;;;;;;6.70;5.30;;;22.50;91.70;;;;;;5047800;28;20025;-34
2022/08/16 02:03:02;;;;;;;6.20;5.60;;;22.50;91.80;;;;;;5047610;28;20364;-34
2022/08/16 02:05:28;;;;;;;6.70;5.95;;;22.50;91.90;;;;;;5038534;28;20044;-34
2022/08/16 02:07:54;;;;;;;7.63;5.82;;;22.40;91.90;;;;;;5039744;28;20028;-35
2022/08/16 02:10:20;;;;;;;6.68;6.07;;;22.40;91.90;;;;;;5049064;28;20025;-34
2022/08/16 02:12:46;;;;;;;6.93;6.30;;;22.40;92.00;;;;;;5047590;28;20040;-33
2022/08/16 02:15:13;;;;;;;7.13;6.43;;;22.40;92.00;;;;;;5048054;28;20029;-34
2022/08/16 02:17:39;;;;;;;7.25;6.63;;;22.40;92.10;;;;;;5047973;28;20056;-33
2022/08/16 02:20:08;;;;;;;7.80;6.88;;;22.40;92.10;;;;;;5048200;28;20079;-34
2022/08/16 02:22:34;;;;;;;9.15;7.15;;;22.40;92.10;;;;;;5047170;28;20021;-34
2022/08/16 02:25:00;;;;;;;7.72;7.03;;;22.40;92.10;;;;;;5048242;28;20032;-34
2022/08/16 02:27:25;;;;;;;7.57;6.88;;;22.40;92.20;;;;;;5046926;28;20122;-34
2022/08/16 02:29:51;;;;;;;7.95;7.15;;;22.30;92.20;;;;;;5048064;28;20079;-34
2022/08/16 02:32:17;;;;;;;8.20;7.38;;;22.30;92.30;;;;;;5048647;28;20485;-33
2022/08/16 02:34:43;;;;;;;7.22;6.53;;;22.30;92.30;;;;;;5046715;28;20024;-33
2022/08/16 02:37:09;;;;;;;7.65;6.88;;;22.30;92.40;;;;;;5048133;28;20845;-34
2022/08/16 02:39:35;;;;;;;8.05;7.35;;;22.30;92.50;;;;;;5047318;28;20066;-32
2022/08/16 02:42:01;;;;;;;8.05;7.25;;;22.20;92.50;;;;;;5047021;28;20383;-33
2022/08/16 02:44:26;;;;;;;8.20;7.43;;;22.20;92.50;;;;;;5047505;28;20032;-34
2022/08/16 02:46:52;;;;;;;8.65;7.70;;;22.20;92.60;;;;;;5047670;28;20087;-33
2022/08/16 02:49:18;;;;;;;7.93;7.18;;;22.20;92.60;;;;;;5046945;28;20027;-33
2022/08/16 02:51:44;;;;;;;8.00;7.18;;;22.10;92.70;;;;;;5046884;28;20167;-35
2022/08/16 02:54:12;;;;;;;9.63;7.60;;;22.10;92.70;;;;;;5047743;28;20105;-33
2022/08/16 02:56:38;;;;;;;8.38;7.57;;;22.10;92.80;;;;;;5046697;28;20464;-33
2022/08/16 02:59:04;;;;;;;8.95;8.07;;;22.10;92.80;;;;;;5047511;28;20047;-34
2022/08/16 03:01:32;;;;;;;8.80;8.00;;;22.10;92.90;;;;;;5047695;28;20029;-34
2022/08/16 03:03:59;;;;;;;9.27;8.38;;;22.10;93.00;;;;;;5046859;28;20032;-34
2022/08/16 03:06:25;;;;;;;9.02;8.18;;;22.00;93.00;;;;;;5047324;28;20016;-34
2022/08/16 03:08:51;;;;;;;9.50;8.60;;;22.00;93.10;;;;;;5047656;28;20028;-35
2022/08/16 03:11:17;;;;;;;10.30;8.43;;;22.00;93.10;;;;;;5046754;28;20451;-33
2022/08/16 03:13:49;;;;;;;9.43;8.45;;;21.90;93.20;;;;;;5047110;28;20540;-32
2022/08/16 03:16:15;;;;;;;9.75;8.10;;;21.90;93.30;;;;;;5046994;28;20029;-33
2022/08/16 03:18:41;;;;;;;9.48;8.57;;;21.90;93.30;;;;;;5046231;28;20025;-33
2022/08/16 03:21:08;;;;;;;10.65;9.02;;;21.90;93.40;;;;;;5047248;28;20520;-34
2022/08/16 03:23:34;;;;;;;10.60;9.50;;;21.90;93.50;;;;;;5046756;28;20021;-32
2022/08/16 03:26:00;;;;;;;10.63;9.18;;;21.80;93.50;;;;;;5047064;28;20144;-34
2022/08/16 03:28:26;;;;;;;10.40;9.30;;;21.80;93.60;;;;;;5047318;28;20067;-33
2022/08/16 03:30:51;;;;;;;11.15;9.98;;;21.80;93.70;;;;;;5045987;28;20434;-34
2022/08/16 03:33:17;;;;;;;11.77;10.55;;;21.80;93.70;;;;;;5047007;28;20473;-34
2022/08/16 03:35:43;;;;;;;12.10;10.05;;;21.80;93.80;;;;;;5047067;28;20024;-34
2022/08/16 03:38:12;;;;;;;12.35;10.40;;;21.70;93.90;;;;;;5046907;28;20104;-36
2022/08/16 03:40:38;;;;;;;11.82;10.63;;;21.70;93.90;;;;;;5046681;28;20017;-34
2022/08/16 03:43:08;;;;;;;11.80;10.63;;;21.70;94.00;;;;;;5046988;28;20039;-33
2022/08/16 03:45:34;;;;;;;11.60;10.50;;;21.70;94.00;;;;;;5045866;28;20021;-34
2022/08/16 03:48:01;;;;;;;11.02;9.98;;;21.70;94.10;;;;;;5046622;28;20427;-34
2022/08/16 03:50:27;;;;;;;11.98;10.88;;;21.70;94.20;;;;;;5046750;28;20025;-34
2022/08/16 03:52:53;;;;;;;12.45;11.23;;;21.60;94.20;;;;;;5046114;28;20041;-33
2022/08/16 03:55:19;;;;;;;12.27;11.13;;;21.60;94.30;;;;;;5047048;28;20029;-33
2022/08/16 03:57:44;;;;;;;12.35;11.13;;;21.60;94.30;;;;;;5046528;28;20021;-35
2022/08/16 04:00:14;;;;;;;12.70;11.18;;;21.60;94.40;;;;;;5046816;28;20021;-34
2022/08/16 04:02:41;;;;;;;13.65;12.05;;;21.60;94.50;;;;;;5046410;28;20017;-33
2022/08/16 04:05:08;;;;;;;12.18;10.88;;;21.50;94.60;;;;;;5046763;28;20028;-34
2022/08/16 04:07:34;;;;;;;12.93;11.63;;;21.50;94.60;;;;;;5045232;28;20139;-33
2022/08/16 04:09:59;;;;;;;12.60;11.40;;;21.50;94.80;;;;;;5047241;28;20124;-33
2022/08/16 04:12:25;;;;;;;12.25;11.15;;;21.40;94.80;;;;;;5046188;28;20597;-33
2022/08/16 04:14:50;;;;;;;12.73;11.45;;;21.50;94.90;;;;;;5045159;28;20076;-33
2022/08/16 04:17:16;;;;;;;12.55;11.35;;;21.40;95.00;;;;;;5046458;28;20017;-33
2022/08/16 04:19:43;;;;;;;12.43;11.15;;;21.40;95.00;;;;;;5045719;28;20075;-33
2022/08/16 04:22:10;;;;;;;13.95;12.32;;;21.30;95.20;;;;;;5045508;28;20428;-34
2022/08/16 04:24:35;;;;;;;14.63;11.80;;;21.30;95.30;;;;;;5046149;28;20039;-32
2022/08/16 04:27:01;;;;;;;13.73;12.02;;;21.20;95.40;;;;;;5044969;28;20021;-33
2022/08/16 04:29:27;;;;;;;13.43;12.13;;;21.20;95.50;;;;;;5046036;28;20200;-33
2022/08/16 04:31:54;;;;;;;14.15;12.68;;;21.20;95.60;;;;;;5045519;28;20029;-34
2022/08/16 04:34:20;;;;;;;14.20;12.73;;;21.20;95.60;;;;;;5045327;28;20539;-35
2022/08/16 04:36:46;;;;;;;14.25;12.80;;;21.10;95.70;;;;;;5045470;28;20041;-35
2022/08/16 04:39:12;;;;;;;14.07;12.77;;;21.10;95.90;;;;;;5046123;28;20371;-33
2022/08/16 04:41:37;;;;;;;14.20;12.75;;;21.10;95.90;;;;;;5044825;28;20025;-33
2022/08/16 04:44:03;;;;;;;13.18;11.88;;;21.10;96.00;;;;;;5045343;28;20539;-33
2022/08/16 04:46:29;;;;;;;15.00;12.98;;;21.10;96.10;;;;;;5045298;28;20037;-34
2022/08/16 04:48:55;;;;;;;13.88;12.57;;;21.00;96.20;;;;;;5044438;28;20072;-34
2022/08/16 04:51:21;;;;;;;14.07;12.68;;;21.00;96.50;;;;;;5045473;28;20347;-34
2022/08/16 04:53:47;;;;;;;14.93;13.20;;;21.10;96.20;;;;;;5045292;28;20570;-33
2022/08/16 04:56:12;;;;;;;14.70;13.25;;;21.10;96.30;;;;;;5044652;28;20052;-34
2022/08/16 04:58:38;;;;;;;14.25;12.75;;;21.10;96.30;;;;;;5044847;28;20106;-32
2022/08/16 05:01:04;;;;;;;13.27;11.98;;;21.10;96.40;;;;;;5045283;28;20032;-34
2022/08/16 05:03:29;;;;;;;14.60;12.82;;;21.10;96.40;;;;;;5044207;28;20447;-34
2022/08/16 05:05:55;;;;;;;14.95;13.43;;;21.10;96.50;;;;;;5045682;28;20108;-33
2022/08/16 05:08:22;;;;;;;15.18;13.70;;;21.10;96.50;;;;;;5045022;28;20025;-34
2022/08/16 05:10:48;;;;;;;15.02;13.57;;;21.20;96.60;;;;;;5043821;28;20472;-33
2022/08/16 05:13:16;;;;;;;15.32;13.88;;;21.20;96.70;;;;;;5045243;28;20012;-33
2022/08/16 05:15:41;;;;;;;14.70;13.20;;;21.20;96.70;;;;;;5045108;28;20097;-34
2022/08/16 05:18:07;;;;;;;15.18;13.68;;;21.20;96.80;;;;;;5044139;28;20025;-33
2022/08/16 05:20:32;;;;;;;15.25;13.85;;;21.20;96.80;;;;;;5044642;28;20021;-33
2022/08/16 05:22:58;;;;;;;16.05;14.38;;;21.20;97.10;;;;;;5044846;28;20503;-33
2022/08/16 05:25:23;;;;;;;14.80;13.35;;;21.20;96.90;;;;;;5043868;28;20035;-34
2022/08/16 05:27:50;;;;;;;16.83;15.00;;;21.20;97.00;;;;;;5045405;28;20488;-33
2022/08/16 05:30:16;;;;;;;18.30;16.50;;;21.20;97.00;;;;;;5044256;28;20033;-33
2022/08/16 05:32:42;;;;;;;19.30;15.98;;;21.30;97.00;;;;;;5044971;28;20089;-33
2022/08/16 05:35:09;;;;;;;15.02;13.48;;;21.30;97.00;;;;;;5044305;28;20029;-34
2022/08/16 05:37:36;;;;;;;14.15;12.75;;;21.30;97.00;;;;;;5044251;28;20052;-33
2022/08/16 05:40:04;;;;;;;14.48;13.02;;;21.30;97.00;;;;;;5044531;28;20024;-33
2022/08/16 05:42:30;;;;;;;13.60;12.27;;;21.30;97.00;;;;;;5042189;28;20035;-32
2022/08/16 05:44:55;;;;;;;13.60;12.20;;;21.30;97.00;;;;;;5042759;28;20021;-33
2022/08/16 05:47:21;;;;;;;12.70;11.38;;;21.40;97.10;;;;;;5044236;28;20040;-32
2022/08/16 05:49:46;;;;;;;12.82;11.55;;;21.50;97.00;;;;;;5047184;28;20036;-33
2022/08/16 05:52:12;;;;;;;13.45;12.05;;;21.50;96.90;;;;;;5043840;28;20067;-34
2022/08/16 05:54:38;;;;;;;11.88;10.68;;;21.50;96.90;;;;;;5042485;28;20033;-33
2022/08/16 05:57:04;;;;;;;13.88;12.48;;;21.50;96.90;;;;;;5043129;28;20029;-33
2022/08/16 05:59:30;;;;;;;15.43;12.65;;;21.60;96.80;;;;;;5041812;28;20029;-35
2022/08/16 06:01:56;;;;;;;13.80;12.45;;;21.60;96.80;;;;;;5043362;28;20075;-33
2022/08/16 06:04:22;;;;;;;14.70;13.23;;;21.60;96.80;;;;;;5043903;28;20071;-35
2022/08/16 06:06:47;;;;;;;14.98;13.48;;;21.60;96.90;;;;;;5041947;28;20025;-34
2022/08/16 06:09:15;;;;;;;14.80;13.20;;;21.60;96.90;;;;;;5043583;28;20017;-34
2022/08/16 06:11:41;;;;;;;15.25;13.70;;;21.60;96.90;;;;;;5042910;28;20037;-35
2022/08/16 06:14:07;;;;;;;13.23;11.98;;;21.60;97.00;;;;;;5042602;28;20028;-33
2022/08/16 06:16:32;;;;;;;13.30;11.95;;;21.60;97.00;;;;;;5042712;28;20021;-33
2022/08/16 06:18:58;;;;;;;13.90;12.35;;;21.60;97.10;;;;;;5043114;28;20380;-33
2022/08/16 06:21:24;;;;;;;11.45;10.38;;;21.50;97.10;;;;;;5042673;28;20246;-33
2022/08/16 06:23:50;;;;;;;12.80;11.60;;;21.60;97.20;;;;;;5043272;28;20359;-32
2022/08/16 06:26:15;;;;;;;12.10;10.90;;;21.60;97.10;;;;;;5044628;28;20024;-34
2022/08/16 06:28:41;;;;;;;13.15;11.95;;;21.60;97.10;;;;;;5042839;28;20032;-33
2022/08/16 06:31:10;;;;;;;13.23;11.85;;;21.60;97.10;;;;;;5043747;28;20144;-33
2022/08/16 06:33:35;;;;;;;11.05;9.95;;;21.60;97.10;;;;;;5043932;28;20024;-33
2022/08/16 06:36:01;;;;;;;13.32;11.93;;;21.70;97.10;;;;;;5043872;28;20384;-32
2022/08/16 06:38:27;;;;;;;14.07;12.68;;;21.70;97.10;;;;;;5045329;28;20051;-33
2022/08/16 06:40:53;;;;;;;12.05;10.85;;;21.70;97.10;;;;;;5047511;28;20905;-34
2022/08/16 06:43:19;;;;;;;13.77;12.48;;;21.70;97.10;;;;;;5048035;28;20092;-34
2022/08/16 06:45:46;;;;;;;12.68;11.48;;;21.80;97.10;;;;;;5047238;28;20083;-34
2022/08/16 06:48:12;;;;;;;12.77;11.48;;;21.80;97.10;;;;;;5046397;28;20903;-34
2022/08/16 06:50:38;;;;;;;12.30;11.10;;;21.80;97.10;;;;;;5047301;28;20064;-33
2022/08/16 06:53:04;;;;;;;13.43;12.10;;;21.80;97.10;;;;;;5047680;28;20028;-34
2022/08/16 06:55:30;;;;;;;13.15;11.93;;;21.90;97.10;;;;;;5047344;28;20435;-34
2022/08/16 06:57:56;;;;;;;12.30;11.02;;;21.90;97.10;;;;;;5046838;28;20025;-33
2022/08/16 07:00:23;;;;;;;13.48;12.18;;;21.90;97.10;;;;;;5047206;28;20017;-34
2022/08/16 07:02:48;;;;;;;14.15;12.85;;;22.00;97.10;;;;;;5047153;28;20386;-34
2022/08/16 07:05:16;;;;;;;14.73;12.48;;;22.00;97.10;;;;;;5048107;28;20024;-33
2022/08/16 07:07:45;;;;;;;12.73;11.43;;;22.10;97.00;;;;;;5047384;28;20070;-34
2022/08/16 07:10:11;;;;;;;14.32;12.90;;;22.10;96.90;;;;;;5047266;28;20029;-33
2022/08/16 07:12:37;;;;;;;13.63;12.23;;;22.10;96.80;;;;;;5047331;28;20025;-33
2022/08/16 07:15:04;;;;;;;12.13;11.02;;;22.10;96.80;;;;;;5047210;28;20044;-34
2022/08/16 07:17:31;;;;;;;14.35;12.65;;;22.10;96.80;;;;;;5046951;28;20021;-34
2022/08/16 07:19:57;;;;;;;14.75;13.15;;;22.20;96.70;;;;;;5047572;28;20066;-34
2022/08/16 07:22:23;;;;;;;12.57;11.35;;;22.20;96.60;;;;;;5047764;28;20393;-34
2022/08/16 07:24:49;;;;;;;11.57;10.15;;;22.20;96.60;;;;;;5046783;28;20060;-34
2022/08/16 07:27:14;;;;;;;11.23;10.13;;;22.30;96.50;;;;;;5047336;28;20055;-33
2022/08/16 07:29:40;;;;;;;12.07;10.98;;;22.40;96.40;;;;;;5046314;28;20307;-33
2022/08/16 07:32:06;;;;;;;11.80;10.57;;;22.40;96.30;;;;;;5046697;28;20040;-34
2022/08/16 07:34:32;;;;;;;11.63;10.52;;;22.40;96.20;;;;;;5046501;28;20017;-34
2022/08/16 07:37:09;;;;;;;11.02;9.93;;;22.50;96.20;;;;;;5045758;28;20021;-34
2022/08/16 07:39:35;;;;;;;13.77;12.38;;;22.50;96.10;;;;;;5046493;28;20064;-35
2022/08/16 07:42:01;;;;;;;8.63;7.90;;;22.60;96.00;;;;;;5046365;28;20021;-35
2022/08/16 07:44:26;;;;;;;10.02;9.13;;;22.70;95.90;;;;;;5046246;28;20017;-34
2022/08/16 07:46:52;;;;;;;10.27;9.38;;;22.70;95.80;;;;;;5046598;28;20061;-33
2022/08/16 07:49:18;;;;;;;10.50;9.55;;;22.80;95.70;;;;;;5045061;28;20033;-34
2022/08/16 07:51:44;;;;;;;12.90;11.50;;;22.80;95.60;;;;;;5045909;28;20072;-36
2022/08/16 07:54:10;;;;;;;11.95;10.68;;;22.90;95.60;;;;;;5046072;28;20391;-34
2022/08/16 07:56:36;;;;;;;11.60;10.40;;;22.90;95.20;;;;;;5046345;28;20067;-34
2022/08/16 07:59:02;;;;;;;9.15;8.30;;;23.00;95.20;;;;;;5045762;28;20028;-34
2022/08/16 08:01:28;;;;;;;8.32;7.53;;;23.10;95.10;;;;;;5045653;28;20311;-34
2022/08/16 08:03:55;;;;;;;9.90;8.90;;;23.10;94.90;;;;;;5045838;28;20049;-34
2022/08/16 08:06:24;;;;;;;8.55;7.75;;;23.20;94.70;;;;;;5045695;28;20025;-34
2022/08/16 08:08:49;;;;;;;7.55;6.85;;;23.30;94.40;;;;;;5045601;28;20017;-34
2022/08/16 08:11:15;;;;;;;8.98;8.07;;;23.40;94.30;;;;;;5045882;28;20040;-34
2022/08/16 08:13:41;;;;;;;8.55;7.75;;;23.40;94.10;;;;;;5045102;28;20439;-35
2022/08/16 08:16:09;;;;;;;6.65;6.00;;;23.50;93.50;;;;;;5045097;28;20563;-34
2022/08/16 08:18:35;;;;;;;8.45;7.70;;;23.60;93.60;;;;;;5045733;28;20029;-34
2022/08/16 08:21:00;;;;;;;8.68;7.82;;;23.60;93.40;;;;;;5043248;28;20036;-34
2022/08/16 08:23:27;;;;;;;7.20;6.50;;;23.70;93.20;;;;;;5045482;28;20043;-33
2022/08/16 08:25:52;;;;;;;8.27;7.50;;;23.80;93.00;;;;;;5045113;28;20112;-34
2022/08/16 08:28:18;;;;;;;8.88;7.53;;;23.80;92.80;;;;;;5045223;28;20116;-34
2022/08/16 08:30:45;;;;;;;7.35;6.65;;;23.90;92.70;;;;;;5044716;28;20619;-34
2022/08/16 08:33:11;;;;;;;7.57;6.78;;;23.90;92.70;;;;;;5045526;28;20025;-33
2022/08/16 08:35:37;;;;;;;7.53;6.65;;;24.00;92.60;;;;;;5045139;28;20033;-34
2022/08/16 08:38:05;;;;;;;7.28;6.05;;;24.00;92.50;;;;;;5044667;28;20032;-34
2022/08/16 08:40:31;;;;;;;7.55;6.85;;;24.10;92.60;;;;;;5044379;28;20170;-34
2022/08/16 08:42:59;;;;;;;7.20;6.50;;;24.10;92.50;;;;;;5045209;28;20127;-34
2022/08/16 08:45:24;;;;;;;8.05;7.35;;;24.20;92.50;;;;;;5045236;28;20100;-34
2022/08/16 08:47:50;;;;;;;8.52;7.63;;;24.20;92.40;;;;;;5043571;28;20044;-34
2022/08/16 08:50:17;;;;;;;8.02;7.22;;;24.20;92.20;;;;;;5045220;28;20029;-34
2022/08/16 08:52:44;;;;;;;11.02;9.50;;;24.30;92.20;;;;;;5043715;28;20473;-33
2022/08/16 08:55:12;;;;;;;8.77;7.97;;;24.30;92.10;;;;;;5044611;28;20036;-33
2022/08/16 08:57:44;;;;;;;9.15;8.07;;;24.30;92.10;;;;;;5045175;28;20376;-33
2022/08/16 09:00:12;;;;;;;7.35;6.30;;;24.30;92.10;;;;;;5045225;28;20024;-33
2022/08/16 09:02:37;;;;;;;9.55;8.38;;;24.40;92.10;;;;;;5043501;28;20032;-35
2022/08/16 09:05:04;;;;;;;6.88;6.28;;;24.40;92.40;;;;;;5045274;28;20399;-34
2022/08/16 09:07:29;;;;;;;9.20;8.30;;;24.40;92.00;;;;;;5044872;28;20032;-35
2022/08/16 09:09:55;;;;;;;7.45;6.82;;;24.50;92.00;;;;;;5044317;28;20029;-36
2022/08/16 09:12:21;;;;;;;8.35;7.20;;;24.50;92.00;;;;;;5044689;28;20032;-35
2022/08/16 09:14:46;;;;;;;7.40;6.70;;;24.60;91.90;;;;;;5044548;28;20072;-34
2022/08/16 09:17:12;;;;;;;8.70;6.72;;;24.70;91.90;;;;;;5044096;28;20105;-35
2022/08/16 09:19:39;;;;;;;7.13;6.50;;;24.70;91.80;;;;;;5045043;28;20029;-34
2022/08/16 09:22:05;;;;;;;8.30;7.50;;;24.80;91.70;;;;;;5044442;28;20487;-34
2022/08/16 09:24:32;;;;;;;7.07;6.38;;;24.90;91.50;;;;;;5044158;28;20036;-34
2022/08/16 09:26:58;;;;;;;8.27;7.55;;;24.90;91.40;;;;;;5044511;28;20033;-34
2022/08/16 09:29:24;;;;;;;8.63;7.22;;;25.00;91.40;;;;;;5043647;28;20099;-38
2022/08/16 09:31:49;;;;;;;7.70;6.72;;;25.00;91.30;;;;;;5044090;28;20487;-34
2022/08/16 09:34:15;;;;;;;6.93;6.25;;;25.00;91.30;;;;;;5044989;28;20418;-35
2022/08/16 09:36:41;;;;;;;7.80;7.10;;;25.10;91.30;;;;;;5043507;28;20108;-34
2022/08/16 09:39:07;;;;;;;6.07;5.47;;;25.10;91.20;;;;;;5043720;28;20028;-35
2022/08/16 09:41:32;;;;;;;6.30;5.45;;;25.20;91.10;;;;;;5044521;28;20037;-34
2022/08/16 09:43:59;;;;;;;6.35;5.75;;;25.30;91.10;;;;;;5043226;28;20099;-34
2022/08/16 09:46:26;;;;;;;6.90;6.20;;;25.40;91.00;;;;;;5044755;28;20104;-35
2022/08/16 09:48:53;;;;;;;7.40;6.80;;;25.50;90.80;;;;;;5044430;28;20036;-34
2022/08/16 09:51:21;;;;;;;7.55;5.97;;;25.50;90.50;;;;;;5042100;28;20035;-34
2022/08/16 09:53:47;;;;;;;7.13;6.43;;;25.50;90.50;;;;;;5042568;28;20542;-34
2022/08/16 09:56:24;;;;;;;8.75;6.70;;;25.50;90.20;;;;;;5043896;28;20025;-34
2022/08/16 09:58:49;;;;;;;7.15;5.95;;;25.50;90.00;;;;;;5043022;28;20445;-34
2022/08/16 10:01:15;;;;;;;6.07;5.57;;;25.50;90.00;;;;;;5043940;28;20023;-34
2022/08/16 10:03:40;;;;;;;10.18;7.05;;;25.50;89.90;;;;;;5042634;28;20048;-34
2022/08/16 10:06:06;;;;;;;7.43;6.40;;;25.60;89.20;;;;;;5043726;28;20139;-34
2022/08/16 10:08:32;;;;;;;6.13;5.57;;;25.70;89.20;;;;;;5044110;28;20021;-34
2022/08/16 10:13:43;;;;;;;6.50;5.90;;;25.80;89.20;;;;;;5033884;28;20040;-34
2022/08/16 10:16:12;;;;;;;6.80;6.10;;;25.80;88.60;;;;;;5048203;28;20036;-34
2022/08/16 10:18:39;;;;;;;6.47;5.90;;;25.80;88.80;;;;;;5047385;28;20656;-34
2022/08/16 10:21:05;;;;;;;7.07;6.38;;;25.90;88.70;;;;;;5048561;28;20029;-33
2022/08/16 10:23:31;;;;;;;7.18;6.03;;;26.00;88.50;;;;;;5048220;28;20012;-34
2022/08/16 10:25:57;;;;;;;6.57;6.07;;;26.10;88.40;;;;;;5047304;28;20043;-34
2022/08/16 10:28:24;;;;;;;7.47;6.78;;;26.20;88.20;;;;;;5048464;28;20503;-36
2022/08/16 10:30:50;;;;;;;6.78;5.95;;;26.20;87.80;;;;;;5044843;28;20392;-35
2022/08/16 10:33:16;;;;;;;5.93;5.30;;;26.30;87.90;;;;;;5048133;28;20036;-34
2022/08/16 10:35:43;;;;;;;6.78;5.47;;;26.30;87.50;;;;;;5048387;28;20036;-35
2022/08/16 10:38:09;;;;;;;6.22;5.50;;;26.40;87.20;;;;;;5048118;28;20029;-35
2022/08/16 10:40:35;;;;;;;5.95;5.45;;;26.50;86.90;;;;;;5046660;28;20087;-34
2022/08/16 10:43:00;;;;;;;6.45;5.85;;;26.60;86.70;;;;;;5048137;28;20111;-34
2022/08/16 10:45:28;;;;;;;6.70;6.10;;;26.70;86.30;;;;;;5047358;28;20028;-34
2022/08/16 10:47:55;;;;;;;7.35;6.05;;;26.70;86.30;;;;;;5047226;28;20025;-34
2022/08/16 10:50:21;;;;;;;5.15;4.65;;;26.70;86.20;;;;;;5047966;28;20029;-34
2022/08/16 10:52:47;;;;;;;5.25;4.75;;;26.80;86.10;;;;;;5047214;28;20037;-33
2022/08/16 10:55:12;;;;;;;9.00;6.65;;;26.80;86.10;;;;;;5047579;28;20067;-34
2022/08/16 10:57:38;;;;;;;6.20;5.60;;;26.90;85.30;;;;;;5048087;28;20510;-34
2022/08/16 11:00:11;;;;;;;6.40;5.80;;;26.90;84.80;;;;;;5047285;28;20021;-34
2022/08/16 11:02:37;;;;;;;6.18;5.20;;;26.80;84.70;;;;;;5046932;28;20050;-34
2022/08/16 11:05:05;;;;;;;5.70;4.88;;;26.80;84.80;;;;;;5047753;28;20102;-34
2022/08/16 11:07:31;;;;;;;4.70;4.30;;;26.80;85.00;;;;;;5047494;28;20460;-35
2022/08/16 11:10:00;;;;;;;7.13;5.50;;;26.90;85.00;;;;;;5047205;28;20097;-35
2022/08/16 11:12:26;;;;;;;5.68;5.10;;;26.90;84.50;;;;;;5047914;28;20432;-35
2022/08/16 11:14:52;;;;;;;4.97;4.60;;;27.10;84.20;;;;;;5046857;28;20032;-35
2022/08/16 11:17:18;;;;;;;5.35;4.85;;;27.10;84.00;;;;;;5048157;28;20547;-35
2022/08/16 11:19:43;;;;;;;5.47;4.97;;;27.20;83.80;;;;;;5047630;28;20016;-34
2022/08/16 11:22:09;;;;;;;5.80;5.30;;;27.30;83.90;;;;;;5047111;28;20025;-34
2022/08/16 11:24:39;;;;;;;7.05;6.35;;;27.30;83.20;;;;;;5047665;28;20021;-34
2022/08/16 11:27:07;;;;;;;6.18;5.57;;;27.40;82.70;;;;;;5047109;28;20123;-35
2022/08/16 11:29:33;;;;;;;5.55;4.70;;;27.40;82.80;;;;;;5026657;28;20477;-34
2022/08/16 11:31:59;;;;;;;4.40;4.00;;;27.40;82.80;;;;;;5041962;28;20041;-35
2022/08/16 11:34:25;;;;;;;4.55;4.13;;;27.50;82.80;;;;;;5047246;28;20040;-35
2022/08/16 11:36:51;;;;;;;5.28;4.20;;;27.60;82.40;;;;;;5045393;28;20032;-34
2022/08/16 11:39:16;;;;;;;6.30;5.60;;;27.70;82.10;;;;;;5047005;28;20025;-35
2022/08/16 11:41:42;;;;;;;4.88;4.40;;;27.80;81.70;;;;;;5046415;28;20145;-34
2022/08/16 11:44:08;;;;;;;6.90;5.40;;;27.80;81.70;;;;;;5045647;28;20528;-36
2022/08/16 11:46:34;;;;;;;5.35;4.35;;;27.90;81.60;;;;;;5046374;28;20984;-34
2022/08/16 11:49:01;;;;;;;5.55;4.97;;;28.00;81.50;;;;;;5046336;28;20448;-35
2022/08/16 11:51:27;;;;;;;5.82;5.25;;;28.10;81.20;;;;;;5045388;28;20052;-35
2022/08/16 11:53:52;;;;;;;5.10;4.60;;;28.20;80.80;;;;;;5046005;28;20480;-34
2022/08/16 11:56:18;;;;;;;7.43;5.68;;;28.10;80.50;;;;;;5046446;28;20033;-34
2022/08/16 11:58:44;;;;;;;7.88;4.97;;;28.10;80.10;;;;;;5045213;28;20134;-35
2022/08/16 12:01:09;;;;;;;7.47;4.38;;;28.10;80.20;;;;;;5046904;28;20052;-34
2022/08/16 12:03:35;;;;;;;5.60;4.80;;;28.10;80.40;;;;;;5045691;28;20052;-34
2022/08/16 12:06:08;;;;;;;5.30;4.65;;;28.10;80.00;;;;;;5043153;28;20108;-33
2022/08/16 12:08:33;;;;;;;5.65;5.05;;;28.10;79.50;;;;;;5045267;28;20451;-34
2022/08/16 12:10:59;;;;;;;6.47;4.97;;;28.20;78.50;;;;;;5046209;28;20112;-33
2022/08/16 12:13:25;;;;;;;8.05;5.13;;;28.20;79.00;;;;;;5045646;28;20033;-34
2022/08/16 12:15:51;;;;;;;4.22;3.90;;;28.20;78.90;;;;;;5045577;28;20392;-34
2022/08/16 12:18:16;;;;;;;4.90;4.40;;;28.20;79.10;;;;;;5045650;28;20029;-35
2022/08/16 12:20:43;;;;;;;4.57;4.15;;;28.30;79.00;;;;;;5045967;28;20033;-34
2022/08/16 12:23:10;;;;;;;5.25;3.88;;;28.40;79.50;;;;;;5046287;28;20440;-34
2022/08/16 12:25:36;;;;;;;7.63;5.85;;;28.40;79.00;;;;;;5044799;28;20057;-34
2022/08/16 12:28:04;;;;;;;5.75;5.20;;;28.40;79.00;;;;;;5045183;28;20025;-35
2022/08/16 12:30:34;;;;;;;6.88;4.85;;;28.30;79.00;;;;;;5045967;28;20021;-34
2022/08/16 12:33:01;;;;;;;7.20;6.40;;;28.30;79.40;;;;;;5044623;28;20032;-35
2022/08/16 12:35:34;;;;;;;5.70;5.10;;;28.30;79.30;;;;;;5044577;28;20464;-34
2022/08/16 12:38:00;;;;;;;4.47;4.07;;;28.20;79.30;;;;;;5045144;28;20016;-35
2022/08/16 12:40:33;;;;;;;7.18;5.38;;;28.20;79.50;;;;;;5044821;28;20098;-33